Bungo Princess — 3FXV8 — position and weather

sailwx.info

Track history (hours):
 
Tides and Currents Weather Stations Pressure Air Temp Water Temp Dewpoint Dewpoint Depression Visibility Wind Speed Wind Dir Waves Ship Positions

Bungo Princess

Last reported at 2016-Dec-04 10:27 UTC. Time now 2016-Dec-07 10:38 UTC.
Position N 31°17' E 121°44'.

Length 103 m; draft 5.7 m.

Type: Cargo ship. MMSI: 355074054.

Date/timePositionNaut miles runAvg speedWind from/ knotsBaromVisibWave heightAir tempDewpointWater temp
2016-Dec-04 10:27N 31°17' E 121°44'1111.8
2016-Dec-04 09:34N 31°23' E 121°35'4 4.2
2016-Dec-04 08:33N 31°22' E 121°30'0 0.0
2016-Dec-04 07:26N 31°22' E 121°30'0 0.0
2016-Dec-04 06:32N 31°22' E 121°30'0 0.0
2016-Dec-04 05:32N 31°22' E 121°30'0 0.0
2016-Dec-04 04:32N 31°22' E 121°30'0 0.0
2016-Dec-04 03:32N 31°22' E 121°30'0 0.0
2016-Dec-04 02:32N 31°22' E 121°30'0 0.0
2016-Dec-04 00:32N 31°22' E 121°30'0 0.0
2016-Dec-03 23:26N 31°22' E 121°30'1 0.6
2016-Dec-03 22:18N 31°22' E 121°30'3 3.8
2016-Dec-03 21:33N 31°24' E 121°33'4 3.4
2016-Dec-03 20:28N 31°26' E 121°29'0 0.0
2016-Dec-03 19:31N 31°26' E 121°29'0 0.0
2016-Dec-03 18:33N 31°26' E 121°29'0 0.0
2016-Dec-03 17:25N 31°26' E 121°29'0 0.0
2016-Dec-03 16:31N 31°26' E 121°29'0 0.0
2016-Dec-03 14:22N 31°26' E 121°29'0 0.0
2016-Dec-03 13:28N 31°26' E 121°29'0 0.0
2016-Dec-03 12:31N 31°26' E 121°29'0 0.0
2016-Dec-03 10:31N 31°26' E 121°29'0 0.0
2016-Dec-03 09:28N 31°26' E 121°29'0 0.0
2016-Dec-03 08:33N 31°26' E 121°29'3 3.1
2016-Dec-03 07:33N 31°24' E 121°32'9 8.8
2016-Dec-03 06:33N 31°20' E 121°41'  
2016-Nov-27 05:26N 31°17' E 121°44'1011.5
2016-Nov-27 04:33N 31°23' E 121°34'4 1.7
2016-Nov-27 02:13N 31°22' E 121°30'0 0.0
2016-Nov-27 01:31N 31°22' E 121°30'0 0.0
2016-Nov-27 00:25N 31°22' E 121°30'0 0.0
2016-Nov-26 23:31N 31°22' E 121°30'0 0.0
2016-Nov-26 21:31N 31°22' E 121°30'0 0.0
2016-Nov-26 20:31N 31°22' E 121°30'0 0.0
2016-Nov-26 19:31N 31°22' E 121°30'0 0.0
2016-Nov-26 18:19N 31°22' E 121°30'0 0.0
2016-Nov-26 17:25N 31°22' E 121°30'0 0.1
2016-Nov-26 16:31N 31°22' E 121°30'0 0.1
2016-Nov-26 15:31N 31°22' E 121°30'0 0.0
2016-Nov-26 14:32N 31°22' E 121°30'0 0.0
2016-Nov-26 12:31N 31°22' E 121°30'0 0.0
2016-Nov-26 11:31N 31°22' E 121°30'0 0.0
2016-Nov-26 10:25N 31°22' E 121°30'0 0.1
2016-Nov-26 09:25N 31°22' E 121°30'0 0.0
2016-Nov-26 08:31N 31°22' E 121°30'0 0.0
2016-Nov-26 07:31N 31°22' E 121°30'0 0.1
2016-Nov-26 06:31N 31°22' E 121°30'0 0.1
2016-Nov-26 05:31N 31°22' E 121°30'0 0.0
2016-Nov-26 04:13N 31°22' E 121°30'0 0.0
2016-Nov-26 03:07N 31°22' E 121°30'0 0.1
2016-Nov-26 02:07N 31°22' E 121°30'0 0.1
2016-Nov-26 01:25N 31°22' E 121°30'0 0.1
2016-Nov-26 00:31N 31°22' E 121°30'0 0.1
2016-Nov-25 23:31N 31°22' E 121°30'0 0.1
2016-Nov-25 22:31N 31°22' E 121°30'0 0.0
2016-Nov-25 21:19N 31°22' E 121°30'0 0.0
2016-Nov-25 20:25N 31°22' E 121°30'0 0.0
2016-Nov-25 19:31N 31°22' E 121°30'0 0.0
2016-Nov-25 18:19N 31°22' E 121°30'0 0.1
2016-Nov-25 17:31N 31°22' E 121°30'0 0.0
2016-Nov-25 16:33N 31°22' E 121°30'3 3.4
2016-Nov-25 15:33N 31°24' E 121°33'  
Track history (hours):
 
Tides and Currents Weather Stations Pressure Air Temp Water Temp Dewpoint Dewpoint Depression Visibility Wind Speed Wind Dir Waves Ship Positions

Bungo Princess

Last reported at 2016-Dec-04 10:27 UTC. Time now 2016-Dec-07 10:38 UTC.
Position N 31°17' E 121°44'.

Length 103 m; draft 5.7 m.

Type: Cargo ship. MMSI: 355074054.

Date/timePositionNaut miles runAvg speedWind from/ knotsBaromVisibWave heightAir tempDewpointWater temp
2016-Dec-04 10:27N 31°17' E 121°44'1111.8
2016-Dec-04 09:34N 31°23' E 121°35'4 4.2
2016-Dec-04 08:33N 31°22' E 121°30'0 0.0
2016-Dec-04 07:26N 31°22' E 121°30'0 0.0
2016-Dec-04 06:32N 31°22' E 121°30'0 0.0
2016-Dec-04 05:32N 31°22' E 121°30'0 0.0
2016-Dec-04 04:32N 31°22' E 121°30'0 0.0
2016-Dec-04 03:32N 31°22' E 121°30'0 0.0
2016-Dec-04 02:32N 31°22' E 121°30'0 0.0
2016-Dec-04 00:32N 31°22' E 121°30'0 0.0
2016-Dec-03 23:26N 31°22' E 121°30'1 0.6
2016-Dec-03 22:18N 31°22' E 121°30'3 3.8
2016-Dec-03 21:33N 31°24' E 121°33'4 3.4
2016-Dec-03 20:28N 31°26' E 121°29'0 0.0
2016-Dec-03 19:31N 31°26' E 121°29'0 0.0
2016-Dec-03 18:33N 31°26' E 121°29'0 0.0
2016-Dec-03 17:25N 31°26' E 121°29'0 0.0
2016-Dec-03 16:31N 31°26' E 121°29'0 0.0
2016-Dec-03 14:22N 31°26' E 121°29'0 0.0
2016-Dec-03 13:28N 31°26' E 121°29'0 0.0
2016-Dec-03 12:31N 31°26' E 121°29'0 0.0
2016-Dec-03 10:31N 31°26' E 121°29'0 0.0
2016-Dec-03 09:28N 31°26' E 121°29'0 0.0
2016-Dec-03 08:33N 31°26' E 121°29'3 3.1
2016-Dec-03 07:33N 31°24' E 121°32'9 8.8
2016-Dec-03 06:33N 31°20' E 121°41'  
2016-Nov-27 05:26N 31°17' E 121°44'1011.5
2016-Nov-27 04:33N 31°23' E 121°34'4 1.7
2016-Nov-27 02:13N 31°22' E 121°30'0 0.0
2016-Nov-27 01:31N 31°22' E 121°30'0 0.0
2016-Nov-27 00:25N 31°22' E 121°30'0 0.0
2016-Nov-26 23:31N 31°22' E 121°30'0 0.0
2016-Nov-26 21:31N 31°22' E 121°30'0 0.0
2016-Nov-26 20:31N 31°22' E 121°30'0 0.0
2016-Nov-26 19:31N 31°22' E 121°30'0 0.0
2016-Nov-26 18:19N 31°22' E 121°30'0 0.0
2016-Nov-26 17:25N 31°22' E 121°30'0 0.1
2016-Nov-26 16:31N 31°22' E 121°30'0 0.1
2016-Nov-26 15:31N 31°22' E 121°30'0 0.0
2016-Nov-26 14:32N 31°22' E 121°30'0 0.0
2016-Nov-26 12:31N 31°22' E 121°30'0 0.0
2016-Nov-26 11:31N 31°22' E 121°30'0 0.0
2016-Nov-26 10:25N 31°22' E 121°30'0 0.1
2016-Nov-26 09:25N 31°22' E 121°30'0 0.0
2016-Nov-26 08:31N 31°22' E 121°30'0 0.0
2016-Nov-26 07:31N 31°22' E 121°30'0 0.1
2016-Nov-26 06:31N 31°22' E 121°30'0 0.1
2016-Nov-26 05:31N 31°22' E 121°30'0 0.0
2016-Nov-26 04:13N 31°22' E 121°30'0 0.0
2016-Nov-26 03:07N 31°22' E 121°30'0 0.1
2016-Nov-26 02:07N 31°22' E 121°30'0 0.1
2016-Nov-26 01:25N 31°22' E 121°30'0 0.1
2016-Nov-26 00:31N 31°22' E 121°30'0 0.1
2016-Nov-25 23:31N 31°22' E 121°30'0 0.1
2016-Nov-25 22:31N 31°22' E 121°30'0 0.0
2016-Nov-25 21:19N 31°22' E 121°30'0 0.0
2016-Nov-25 20:25N 31°22' E 121°30'0 0.0
2016-Nov-25 19:31N 31°22' E 121°30'0 0.0
2016-Nov-25 18:19N 31°22' E 121°30'0 0.1
2016-Nov-25 17:31N 31°22' E 121°30'0 0.0
2016-Nov-25 16:33N 31°22' E 121°30'3 3.4
2016-Nov-25 15:33N 31°24' E 121°33'  

Dump ship's entire track history